sensor_id;sensor_type;location;lat;lon;timestamp;temperature;humidity
52565;DHT22;38460;53.106;7.004;2023-02-11T00:01:37;6.20;99.90
52565;DHT22;38460;53.106;7.004;2023-02-11T00:04:06;6.20;99.90
52565;DHT22;38460;53.106;7.004;2023-02-11T00:06:33;6.20;99.90
52565;DHT22;38460;53.106;7.004;2023-02-11T00:09:00;6.20;99.90
52565;DHT22;38460;53.106;7.004;2023-02-11T00:11:27;6.20;99.90
52565;DHT22;38460;53.106;7.004;2023-02-11T00:13:56;6.20;99.90
52565;DHT22;38460;53.106;7.004;2023-02-11T00:16:22;6.20;99.90
52565;DHT22;38460;53.106;7.004;2023-02-11T00:18:48;6.20;99.90
52565;DHT22;38460;53.106;7.004;2023-02-11T00:21:20;6.20;99.90
52565;DHT22;38460;53.106;7.004;2023-02-11T00:23:46;6.20;99.90
52565;DHT22;38460;53.106;7.004;2023-02-11T00:26:13;6.30;99.90
52565;DHT22;38460;53.106;7.004;2023-02-11T00:28:39;6.30;99.90
52565;DHT22;38460;53.106;7.004;2023-02-11T00:31:06;6.30;99.90
52565;DHT22;38460;53.106;7.004;2023-02-11T00:33:31;6.20;99.90
52565;DHT22;38460;53.106;7.004;2023-02-11T00:35:57;6.30;99.90
52565;DHT22;38460;53.106;7.004;2023-02-11T00:38:23;6.30;99.90
52565;DHT22;38460;53.106;7.004;2023-02-11T00:40:49;6.20;99.90
52565;DHT22;38460;53.106;7.004;2023-02-11T00:43:14;6.20;99.90
52565;DHT22;38460;53.106;7.004;2023-02-11T00:45:40;6.20;99.90
52565;DHT22;38460;53.106;7.004;2023-02-11T00:48:06;6.20;99.90
52565;DHT22;38460;53.106;7.004;2023-02-11T00:50:32;6.20;99.90
52565;DHT22;38460;53.106;7.004;2023-02-11T00:52:57;6.20;99.90
52565;DHT22;38460;53.106;7.004;2023-02-11T00:55:23;6.20;99.90
52565;DHT22;38460;53.106;7.004;2023-02-11T00:57:49;6.20;99.90
52565;DHT22;38460;53.106;7.004;2023-02-11T01:00:15;6.20;99.90
52565;DHT22;38460;53.106;7.004;2023-02-11T01:02:41;6.20;99.90
52565;DHT22;38460;53.106;7.004;2023-02-11T01:05:07;6.20;99.90
52565;DHT22;38460;53.106;7.004;2023-02-11T01:07:33;6.20;99.90
52565;DHT22;38460;53.106;7.004;2023-02-11T01:09:59;6.30;99.90
52565;DHT22;38460;53.106;7.004;2023-02-11T01:12:25;6.30;99.90
52565;DHT22;38460;53.106;7.004;2023-02-11T01:14:50;6.20;99.90
52565;DHT22;38460;53.106;7.004;2023-02-11T01:17:16;6.30;99.90
52565;DHT22;38460;53.106;7.004;2023-02-11T01:19:42;6.30;99.90
52565;DHT22;38460;53.106;7.004;2023-02-11T01:22:08;6.30;99.90
52565;DHT22;38460;53.106;7.004;2023-02-11T01:24:33;6.30;99.90
52565;DHT22;38460;53.106;7.004;2023-02-11T01:26:59;6.30;99.90
52565;DHT22;38460;53.106;7.004;2023-02-11T01:29:25;6.30;99.90
52565;DHT22;38460;53.106;7.004;2023-02-11T01:31:50;6.30;99.90
52565;DHT22;38460;53.106;7.004;2023-02-11T01:34:16;6.30;99.90
52565;DHT22;38460;53.106;7.004;2023-02-11T01:36:42;6.30;99.90
52565;DHT22;38460;53.106;7.004;2023-02-11T01:39:08;6.30;99.90
52565;DHT22;38460;53.106;7.004;2023-02-11T01:41:34;6.30;99.90
52565;DHT22;38460;53.106;7.004;2023-02-11T01:44:23;6.30;99.90
52565;DHT22;38460;53.106;7.004;2023-02-11T01:46:49;6.20;99.90
52565;DHT22;38460;53.106;7.004;2023-02-11T01:49:25;6.20;99.90
52565;DHT22;38460;53.106;7.004;2023-02-11T01:54:35;6.20;99.90
52565;DHT22;38460;53.106;7.004;2023-02-11T01:57:24;6.20;99.90
52565;DHT22;38460;53.106;7.004;2023-02-11T02:08:16;6.20;99.90
52565;DHT22;38460;53.106;7.004;2023-02-11T02:10:47;6.20;99.90
52565;DHT22;38460;53.106;7.004;2023-02-11T02:13:13;6.20;99.90
52565;DHT22;38460;53.106;7.004;2023-02-11T02:15:45;6.30;99.90
52565;DHT22;38460;53.106;7.004;2023-02-11T02:23:58;6.30;99.90
52565;DHT22;38460;53.106;7.004;2023-02-11T02:26:57;6.30;99.90
52565;DHT22;38460;53.106;7.004;2023-02-11T02:38:19;6.30;99.90
52565;DHT22;38460;53.106;7.004;2023-02-11T02:41:05;6.30;99.90
52565;DHT22;38460;53.106;7.004;2023-02-11T02:43:32;6.30;99.90
52565;DHT22;38460;53.106;7.004;2023-02-11T02:46:18;6.30;99.90
52565;DHT22;38460;53.106;7.004;2023-02-11T02:48:44;6.30;99.90
52565;DHT22;38460;53.106;7.004;2023-02-11T03:05:22;6.30;99.90
52565;DHT22;38460;53.106;7.004;2023-02-11T03:08:03;6.30;99.90
52565;DHT22;38460;53.106;7.004;2023-02-11T03:10:33;6.30;99.90
52565;DHT22;38460;53.106;7.004;2023-02-11T03:13:01;6.30;99.90
52565;DHT22;38460;53.106;7.004;2023-02-11T03:15:32;6.40;99.90
52565;DHT22;38460;53.106;7.004;2023-02-11T03:17:59;6.30;99.90
52565;DHT22;38460;53.106;7.004;2023-02-11T03:20:27;6.40;99.90
52565;DHT22;38460;53.106;7.004;2023-02-11T03:22:55;6.30;99.90
52565;DHT22;38460;53.106;7.004;2023-02-11T03:25:29;6.40;99.90
52565;DHT22;38460;53.106;7.004;2023-02-11T03:30:37;6.40;99.90
52565;DHT22;38460;53.106;7.004;2023-02-11T03:33:11;6.30;99.90
52565;DHT22;38460;53.106;7.004;2023-02-11T03:35:42;6.40;99.90
52565;DHT22;38460;53.106;7.004;2023-02-11T03:38:28;6.40;99.90
52565;DHT22;38460;53.106;7.004;2023-02-11T03:40:55;6.40;99.90
52565;DHT22;38460;53.106;7.004;2023-02-11T03:43:41;6.40;99.90
52565;DHT22;38460;53.106;7.004;2023-02-11T03:46:08;6.40;99.90
52565;DHT22;38460;53.106;7.004;2023-02-11T03:48:39;6.40;99.90
52565;DHT22;38460;53.106;7.004;2023-02-11T03:51:07;6.40;99.90
52565;DHT22;38460;53.106;7.004;2023-02-11T03:53:35;6.40;99.90
52565;DHT22;38460;53.106;7.004;2023-02-11T03:56:04;6.40;99.90
52565;DHT22;38460;53.106;7.004;2023-02-11T03:58:32;6.40;99.90
52565;DHT22;38460;53.106;7.004;2023-02-11T04:00:57;6.40;99.90
52565;DHT22;38460;53.106;7.004;2023-02-11T04:03:23;6.40;99.90
52565;DHT22;38460;53.106;7.004;2023-02-11T04:05:49;6.40;99.90
52565;DHT22;38460;53.106;7.004;2023-02-11T04:08:15;6.40;99.90
52565;DHT22;38460;53.106;7.004;2023-02-11T04:10:40;6.40;99.90
52565;DHT22;38460;53.106;7.004;2023-02-11T04:13:06;6.40;99.90
52565;DHT22;38460;53.106;7.004;2023-02-11T04:15:32;6.40;99.90
52565;DHT22;38460;53.106;7.004;2023-02-11T04:17:58;6.40;99.90
52565;DHT22;38460;53.106;7.004;2023-02-11T04:20:23;6.50;99.90
52565;DHT22;38460;53.106;7.004;2023-02-11T04:22:49;6.50;99.90
52565;DHT22;38460;53.106;7.004;2023-02-11T04:25:15;6.50;99.90
52565;DHT22;38460;53.106;7.004;2023-02-11T04:27:40;6.40;99.90
52565;DHT22;38460;53.106;7.004;2023-02-11T04:30:08;6.50;99.90
52565;DHT22;38460;53.106;7.004;2023-02-11T04:32:33;6.50;99.90
52565;DHT22;38460;53.106;7.004;2023-02-11T04:34:59;6.50;99.90
52565;DHT22;38460;53.106;7.004;2023-02-11T04:37:25;6.50;99.90
52565;DHT22;38460;53.106;7.004;2023-02-11T04:39:51;6.50;99.90
52565;DHT22;38460;53.106;7.004;2023-02-11T04:42:16;6.50;99.90
52565;DHT22;38460;53.106;7.004;2023-02-11T04:44:42;6.50;99.90
52565;DHT22;38460;53.106;7.004;2023-02-11T04:47:08;6.50;99.90
52565;DHT22;38460;53.106;7.004;2023-02-11T04:49:34;6.50;99.90
52565;DHT22;38460;53.106;7.004;2023-02-11T04:51:59;6.60;99.90
52565;DHT22;38460;53.106;7.004;2023-02-11T04:54:25;6.50;99.90
52565;DHT22;38460;53.106;7.004;2023-02-11T04:56:51;6.50;99.90
52565;DHT22;38460;53.106;7.004;2023-02-11T04:59:17;6.50;99.90
52565;DHT22;38460;53.106;7.004;2023-02-11T05:01:42;6.50;99.90
52565;DHT22;38460;53.106;7.004;2023-02-11T05:04:08;6.50;99.90
52565;DHT22;38460;53.106;7.004;2023-02-11T05:06:34;6.50;99.90
52565;DHT22;38460;53.106;7.004;2023-02-11T05:09:00;6.50;99.90
52565;DHT22;38460;53.106;7.004;2023-02-11T05:11:25;6.50;99.90
52565;DHT22;38460;53.106;7.004;2023-02-11T05:13:51;6.50;99.90
52565;DHT22;38460;53.106;7.004;2023-02-11T05:16:17;6.50;99.90
52565;DHT22;38460;53.106;7.004;2023-02-11T05:18:44;6.50;99.90
52565;DHT22;38460;53.106;7.004;2023-02-11T05:21:15;6.50;99.90
52565;DHT22;38460;53.106;7.004;2023-02-11T05:23:41;6.50;99.90
52565;DHT22;38460;53.106;7.004;2023-02-11T05:26:08;6.50;99.90
52565;DHT22;38460;53.106;7.004;2023-02-11T05:28:34;6.50;99.90
52565;DHT22;38460;53.106;7.004;2023-02-11T05:31:00;6.60;99.90
52565;DHT22;38460;53.106;7.004;2023-02-11T05:33:26;6.50;99.90
52565;DHT22;38460;53.106;7.004;2023-02-11T05:36:00;6.50;99.90
52565;DHT22;38460;53.106;7.004;2023-02-11T05:38:26;6.60;99.90
52565;DHT22;38460;53.106;7.004;2023-02-11T05:40:52;6.60;99.90
52565;DHT22;38460;53.106;7.004;2023-02-11T05:43:18;6.50;99.90
52565;DHT22;38460;53.106;7.004;2023-02-11T05:45:44;6.60;99.90
52565;DHT22;38460;53.106;7.004;2023-02-11T05:48:10;6.60;99.90
52565;DHT22;38460;53.106;7.004;2023-02-11T05:50:35;6.60;99.90
52565;DHT22;38460;53.106;7.004;2023-02-11T05:53:01;6.60;99.90
52565;DHT22;38460;53.106;7.004;2023-02-11T05:55:27;6.60;99.90
52565;DHT22;38460;53.106;7.004;2023-02-11T05:57:53;6.60;99.90
52565;DHT22;38460;53.106;7.004;2023-02-11T06:00:19;6.60;99.90
52565;DHT22;38460;53.106;7.004;2023-02-11T06:02:44;6.60;99.90
52565;DHT22;38460;53.106;7.004;2023-02-11T06:05:10;6.60;99.90
52565;DHT22;38460;53.106;7.004;2023-02-11T06:07:36;6.60;99.90
52565;DHT22;38460;53.106;7.004;2023-02-11T06:10:02;6.60;99.90
52565;DHT22;38460;53.106;7.004;2023-02-11T06:12:27;6.60;99.90
52565;DHT22;38460;53.106;7.004;2023-02-11T06:14:53;6.50;99.90
52565;DHT22;38460;53.106;7.004;2023-02-11T06:17:19;6.50;99.90
52565;DHT22;38460;53.106;7.004;2023-02-11T06:19:44;6.50;99.90
52565;DHT22;38460;53.106;7.004;2023-02-11T06:22:10;6.50;99.90
52565;DHT22;38460;53.106;7.004;2023-02-11T06:24:36;6.50;99.90
52565;DHT22;38460;53.106;7.004;2023-02-11T06:27:05;6.50;99.90
52565;DHT22;38460;53.106;7.004;2023-02-11T06:29:31;6.50;99.90
52565;DHT22;38460;53.106;7.004;2023-02-11T06:31:57;6.50;99.90
52565;DHT22;38460;53.106;7.004;2023-02-11T06:34:22;6.50;99.90
52565;DHT22;38460;53.106;7.004;2023-02-11T06:36:48;6.50;99.90
52565;DHT22;38460;53.106;7.004;2023-02-11T06:39:14;6.50;99.90
52565;DHT22;38460;53.106;7.004;2023-02-11T06:41:40;6.50;99.90
52565;DHT22;38460;53.106;7.004;2023-02-11T06:44:06;6.50;99.90
52565;DHT22;38460;53.106;7.004;2023-02-11T06:46:31;6.50;99.90
52565;DHT22;38460;53.106;7.004;2023-02-11T06:48:58;6.50;99.90
52565;DHT22;38460;53.106;7.004;2023-02-11T06:51:23;6.50;99.90
52565;DHT22;38460;53.106;7.004;2023-02-11T06:53:49;6.50;99.90
52565;DHT22;38460;53.106;7.004;2023-02-11T06:56:18;6.50;99.90
52565;DHT22;38460;53.106;7.004;2023-02-11T06:58:45;6.50;99.90
52565;DHT22;38460;53.106;7.004;2023-02-11T07:01:15;6.50;99.90
52565;DHT22;38460;53.106;7.004;2023-02-11T07:03:43;6.50;99.90
52565;DHT22;38460;53.106;7.004;2023-02-11T07:06:12;6.60;99.90
52565;DHT22;38460;53.106;7.004;2023-02-11T07:08:39;6.60;99.90
52565;DHT22;38460;53.106;7.004;2023-02-11T07:11:15;6.60;99.90
52565;DHT22;38460;53.106;7.004;2023-02-11T07:13:42;6.60;99.90
52565;DHT22;38460;53.106;7.004;2023-02-11T07:16:11;6.60;99.90
52565;DHT22;38460;53.106;7.004;2023-02-11T07:18:37;6.60;99.90
52565;DHT22;38460;53.106;7.004;2023-02-11T07:21:07;6.60;99.90
52565;DHT22;38460;53.106;7.004;2023-02-11T07:23:33;6.60;99.90
52565;DHT22;38460;53.106;7.004;2023-02-11T07:26:06;6.60;99.90
52565;DHT22;38460;53.106;7.004;2023-02-11T07:28:34;6.70;99.90
52565;DHT22;38460;53.106;7.004;2023-02-11T07:31:09;6.70;99.90
52565;DHT22;38460;53.106;7.004;2023-02-11T07:33:35;6.60;99.90
52565;DHT22;38460;53.106;7.004;2023-02-11T07:36:02;6.60;99.90
52565;DHT22;38460;53.106;7.004;2023-02-11T07:38:30;6.70;99.90
52565;DHT22;38460;53.106;7.004;2023-02-11T07:41:02;6.70;99.90
52565;DHT22;38460;53.106;7.004;2023-02-11T07:43:30;6.70;99.90
52565;DHT22;38460;53.106;7.004;2023-02-11T07:45:55;6.70;99.90
52565;DHT22;38460;53.106;7.004;2023-02-11T07:48:21;6.70;99.90
52565;DHT22;38460;53.106;7.004;2023-02-11T07:50:47;6.70;99.90
52565;DHT22;38460;53.106;7.004;2023-02-11T07:53:13;6.70;99.90
52565;DHT22;38460;53.106;7.004;2023-02-11T07:55:38;6.70;99.90
52565;DHT22;38460;53.106;7.004;2023-02-11T07:58:04;6.70;99.90
52565;DHT22;38460;53.106;7.004;2023-02-11T08:00:30;6.70;99.90
52565;DHT22;38460;53.106;7.004;2023-02-11T08:02:56;6.70;99.90
52565;DHT22;38460;53.106;7.004;2023-02-11T08:05:22;6.80;99.90
52565;DHT22;38460;53.106;7.004;2023-02-11T08:07:52;6.80;99.90
52565;DHT22;38460;53.106;7.004;2023-02-11T08:10:18;6.80;99.90
52565;DHT22;38460;53.106;7.004;2023-02-11T08:12:44;6.80;99.90
52565;DHT22;38460;53.106;7.004;2023-02-11T08:15:10;6.80;99.90
52565;DHT22;38460;53.106;7.004;2023-02-11T08:17:36;6.80;99.90
52565;DHT22;38460;53.106;7.004;2023-02-11T08:20:03;6.80;99.90
52565;DHT22;38460;53.106;7.004;2023-02-11T08:22:33;6.80;99.90
52565;DHT22;38460;53.106;7.004;2023-02-11T08:24:59;6.90;99.90
52565;DHT22;38460;53.106;7.004;2023-02-11T08:27:26;6.90;99.90
52565;DHT22;38460;53.106;7.004;2023-02-11T08:29:54;6.90;99.90
52565;DHT22;38460;53.106;7.004;2023-02-11T08:32:21;6.90;99.90
52565;DHT22;38460;53.106;7.004;2023-02-11T08:34:51;7.00;99.90
52565;DHT22;38460;53.106;7.004;2023-02-11T08:37:17;7.00;99.90
52565;DHT22;38460;53.106;7.004;2023-02-11T08:39:43;7.00;99.90
52565;DHT22;38460;53.106;7.004;2023-02-11T08:42:12;7.00;99.90
52565;DHT22;38460;53.106;7.004;2023-02-11T08:44:38;7.00;99.90
52565;DHT22;38460;53.106;7.004;2023-02-11T08:47:04;7.10;99.90
52565;DHT22;38460;53.106;7.004;2023-02-11T08:49:30;7.10;99.90
52565;DHT22;38460;53.106;7.004;2023-02-11T08:51:56;7.10;99.90
52565;DHT22;38460;53.106;7.004;2023-02-11T08:54:26;7.10;99.90
52565;DHT22;38460;53.106;7.004;2023-02-11T08:56:52;7.10;99.90
52565;DHT22;38460;53.106;7.004;2023-02-11T08:59:18;7.10;99.90
52565;DHT22;38460;53.106;7.004;2023-02-11T09:01:44;7.10;99.90
52565;DHT22;38460;53.106;7.004;2023-02-11T09:04:11;7.10;99.90
52565;DHT22;38460;53.106;7.004;2023-02-11T09:06:37;7.10;99.90
52565;DHT22;38460;53.106;7.004;2023-02-11T09:09:04;7.10;99.90
52565;DHT22;38460;53.106;7.004;2023-02-11T09:11:32;7.20;99.90
52565;DHT22;38460;53.106;7.004;2023-02-11T09:13:58;7.20;99.90
52565;DHT22;38460;53.106;7.004;2023-02-11T09:16:27;7.20;99.90
52565;DHT22;38460;53.106;7.004;2023-02-11T09:18:56;7.30;99.90
52565;DHT22;38460;53.106;7.004;2023-02-11T09:21:22;7.20;99.90
52565;DHT22;38460;53.106;7.004;2023-02-11T09:23:47;7.30;99.90
52565;DHT22;38460;53.106;7.004;2023-02-11T09:26:18;7.30;99.90
52565;DHT22;38460;53.106;7.004;2023-02-11T09:28:45;7.30;99.90
52565;DHT22;38460;53.106;7.004;2023-02-11T09:31:13;7.30;99.90
52565;DHT22;38460;53.106;7.004;2023-02-11T09:33:41;7.40;99.90
52565;DHT22;38460;53.106;7.004;2023-02-11T09:36:13;7.40;99.90
52565;DHT22;38460;53.106;7.004;2023-02-11T09:38:40;7.40;99.90
52565;DHT22;38460;53.106;7.004;2023-02-11T09:43:52;7.50;99.90
52565;DHT22;38460;53.106;7.004;2023-02-11T09:46:22;7.50;99.90
52565;DHT22;38460;53.106;7.004;2023-02-11T09:48:51;7.60;99.90
52565;DHT22;38460;53.106;7.004;2023-02-11T09:52:04;7.50;99.90
52565;DHT22;38460;53.106;7.004;2023-02-11T09:54:33;7.60;99.90
52565;DHT22;38460;53.106;7.004;2023-02-11T09:57:00;7.60;99.90
52565;DHT22;38460;53.106;7.004;2023-02-11T09:59:26;7.60;99.90
52565;DHT22;38460;53.106;7.004;2023-02-11T10:02:04;7.60;99.90
52565;DHT22;38460;53.106;7.004;2023-02-11T10:07:50;7.70;99.90
52565;DHT22;38460;53.106;7.004;2023-02-11T10:13:19;7.80;99.90
52565;DHT22;38460;53.106;7.004;2023-02-11T10:21:27;7.90;99.90
52565;DHT22;38460;53.106;7.004;2023-02-11T10:23:59;7.90;99.90
52565;DHT22;38460;53.106;7.004;2023-02-11T10:26:30;8.00;99.90
52565;DHT22;38460;53.106;7.004;2023-02-11T10:28:58;8.10;99.90
52565;DHT22;38460;53.106;7.004;2023-02-11T10:31:38;8.10;99.90
52565;DHT22;38460;53.106;7.004;2023-02-11T10:34:08;8.20;99.90
52565;DHT22;38460;53.106;7.004;2023-02-11T10:36:40;8.20;99.90
52565;DHT22;38460;53.106;7.004;2023-02-11T10:39:19;8.30;99.90
52565;DHT22;38460;53.106;7.004;2023-02-11T10:41:49;8.30;99.90
52565;DHT22;38460;53.106;7.004;2023-02-11T10:47:26;8.40;99.90
52565;DHT22;38460;53.106;7.004;2023-02-11T10:49:52;8.50;99.90
52565;DHT22;38460;53.106;7.004;2023-02-11T10:52:22;8.50;99.90
52565;DHT22;38460;53.106;7.004;2023-02-11T10:55:18;8.60;99.90
52565;DHT22;38460;53.106;7.004;2023-02-11T10:57:53;8.70;99.90
52565;DHT22;38460;53.106;7.004;2023-02-11T11:00:26;8.70;99.90
52565;DHT22;38460;53.106;7.004;2023-02-11T11:02:56;8.80;99.90
52565;DHT22;38460;53.106;7.004;2023-02-11T11:05:30;8.90;99.90
52565;DHT22;38460;53.106;7.004;2023-02-11T11:07:59;8.90;99.90
52565;DHT22;38460;53.106;7.004;2023-02-11T11:13:02;9.00;99.90
52565;DHT22;38460;53.106;7.004;2023-02-11T11:15:30;9.00;99.90
52565;DHT22;38460;53.106;7.004;2023-02-11T11:18:13;9.10;99.90
52565;DHT22;38460;53.106;7.004;2023-02-11T11:20:59;9.10;99.90
52565;DHT22;38460;53.106;7.004;2023-02-11T11:23:28;9.10;99.90
52565;DHT22;38460;53.106;7.004;2023-02-11T11:26:10;9.20;99.90
52565;DHT22;38460;53.106;7.004;2023-02-11T11:34:27;9.20;99.90
52565;DHT22;38460;53.106;7.004;2023-02-11T11:36:54;9.20;99.90
52565;DHT22;38460;53.106;7.004;2023-02-11T11:41:52;9.20;99.90
52565;DHT22;38460;53.106;7.004;2023-02-11T11:44:28;9.20;99.90
52565;DHT22;38460;53.106;7.004;2023-02-11T11:49:41;9.20;99.90
52565;DHT22;38460;53.106;7.004;2023-02-11T11:52:38;9.30;99.90
52565;DHT22;38460;53.106;7.004;2023-02-11T11:55:41;9.30;99.90
52565;DHT22;38460;53.106;7.004;2023-02-11T11:58:17;9.30;99.90
52565;DHT22;38460;53.106;7.004;2023-02-11T12:01:00;9.30;99.90
52565;DHT22;38460;53.106;7.004;2023-02-11T12:23:11;9.30;99.90
52565;DHT22;38460;53.106;7.004;2023-02-11T12:39:47;9.40;99.90
52565;DHT22;38460;53.106;7.004;2023-02-11T12:47:52;9.40;99.90
52565;DHT22;38460;53.106;7.004;2023-02-11T12:50:44;9.40;99.90
52565;DHT22;38460;53.106;7.004;2023-02-11T12:58:58;9.40;99.90
52565;DHT22;38460;53.106;7.004;2023-02-11T13:01:25;9.40;99.90
52565;DHT22;38460;53.106;7.004;2023-02-11T13:04:03;9.50;99.90
52565;DHT22;38460;53.106;7.004;2023-02-11T13:06:40;9.40;99.90
52565;DHT22;38460;53.106;7.004;2023-02-11T13:09:16;9.40;99.90
52565;DHT22;38460;53.106;7.004;2023-02-11T13:11:48;9.40;99.90
52565;DHT22;38460;53.106;7.004;2023-02-11T13:14:28;9.40;99.90
52565;DHT22;38460;53.106;7.004;2023-02-11T13:16:55;9.40;99.90
52565;DHT22;38460;53.106;7.004;2023-02-11T13:19:37;9.40;99.90
52565;DHT22;38460;53.106;7.004;2023-02-11T13:24:51;9.40;99.90
52565;DHT22;38460;53.106;7.004;2023-02-11T13:27:46;9.50;99.90
52565;DHT22;38460;53.106;7.004;2023-02-11T13:30:26;9.40;99.90
52565;DHT22;38460;53.106;7.004;2023-02-11T13:38:05;9.40;99.90
52565;DHT22;38460;53.106;7.004;2023-02-11T13:40:36;9.40;99.90
52565;DHT22;38460;53.106;7.004;2023-02-11T13:43:04;9.40;99.90
52565;DHT22;38460;53.106;7.004;2023-02-11T13:45:46;9.30;99.90
52565;DHT22;38460;53.106;7.004;2023-02-11T13:48:24;9.40;99.90
52565;DHT22;38460;53.106;7.004;2023-02-11T13:50:55;9.40;99.90
52565;DHT22;38460;53.106;7.004;2023-02-11T13:53:22;9.40;99.90
52565;DHT22;38460;53.106;7.004;2023-02-11T13:55:50;9.40;99.90
52565;DHT22;38460;53.106;7.004;2023-02-11T13:58:32;9.40;99.90
52565;DHT22;38460;53.106;7.004;2023-02-11T14:01:01;9.40;99.90
52565;DHT22;38460;53.106;7.004;2023-02-11T14:03:35;9.40;99.90
52565;DHT22;38460;53.106;7.004;2023-02-11T14:06:23;9.40;99.90
52565;DHT22;38460;53.106;7.004;2023-02-11T14:23:01;9.40;99.90
52565;DHT22;38460;53.106;7.004;2023-02-11T14:25:04;9.40;99.90
52565;DHT22;38460;53.106;7.004;2023-02-11T14:39:16;9.40;99.90
52565;DHT22;38460;53.106;7.004;2023-02-11T14:41:45;9.40;99.90
52565;DHT22;38460;53.106;7.004;2023-02-11T14:44:21;9.40;99.90
52565;DHT22;38460;53.106;7.004;2023-02-11T14:46:49;9.40;99.90
52565;DHT22;38460;53.106;7.004;2023-02-11T14:49:27;9.40;99.90
52565;DHT22;38460;53.106;7.004;2023-02-11T14:51:59;9.40;99.90
52565;DHT22;38460;53.106;7.004;2023-02-11T14:54:27;9.40;99.90
52565;DHT22;38460;53.106;7.004;2023-02-11T14:57:17;9.40;99.90
52565;DHT22;38460;53.106;7.004;2023-02-11T15:00:02;9.40;99.90
52565;DHT22;38460;53.106;7.004;2023-02-11T15:02:32;9.40;99.90
52565;DHT22;38460;53.106;7.004;2023-02-11T15:05:21;9.40;99.90
52565;DHT22;38460;53.106;7.004;2023-02-11T15:07:51;9.40;99.90
52565;DHT22;38460;53.106;7.004;2023-02-11T15:12:50;9.40;99.90
52565;DHT22;38460;53.106;7.004;2023-02-11T15:15:16;9.40;99.90
52565;DHT22;38460;53.106;7.004;2023-02-11T15:17:43;9.40;99.90
52565;DHT22;38460;53.106;7.004;2023-02-11T15:20:19;9.40;99.90
52565;DHT22;38460;53.106;7.004;2023-02-11T15:22:46;9.40;99.90
52565;DHT22;38460;53.106;7.004;2023-02-11T15:25:15;9.40;99.90
52565;DHT22;38460;53.106;7.004;2023-02-11T15:27:47;9.40;99.90
52565;DHT22;38460;53.106;7.004;2023-02-11T15:35:15;9.30;99.90
52565;DHT22;38460;53.106;7.004;2023-02-11T15:37:43;9.20;99.90
52565;DHT22;38460;53.106;7.004;2023-02-11T15:40:19;9.20;99.90
52565;DHT22;38460;53.106;7.004;2023-02-11T15:42:58;9.20;99.90
52565;DHT22;38460;53.106;7.004;2023-02-11T15:45:25;9.20;99.90
52565;DHT22;38460;53.106;7.004;2023-02-11T15:47:58;9.10;99.90
52565;DHT22;38460;53.106;7.004;2023-02-11T15:50:29;9.20;99.90
52565;DHT22;38460;53.106;7.004;2023-02-11T15:52:58;9.10;99.90
52565;DHT22;38460;53.106;7.004;2023-02-11T15:55:25;9.10;99.90
52565;DHT22;38460;53.106;7.004;2023-02-11T15:57:58;9.10;99.90
52565;DHT22;38460;53.106;7.004;2023-02-11T16:00:44;9.10;99.90
52565;DHT22;38460;53.106;7.004;2023-02-11T16:03:22;9.10;99.90
52565;DHT22;38460;53.106;7.004;2023-02-11T16:05:48;9.00;99.90
52565;DHT22;38460;53.106;7.004;2023-02-11T16:08:23;9.10;99.90
52565;DHT22;38460;53.106;7.004;2023-02-11T16:11:01;9.00;99.90
52565;DHT22;38460;53.106;7.004;2023-02-11T16:13:29;9.00;99.90
52565;DHT22;38460;53.106;7.004;2023-02-11T16:16:20;9.00;99.90
52565;DHT22;38460;53.106;7.004;2023-02-11T16:18:50;9.00;99.90
52565;DHT22;38460;53.106;7.004;2023-02-11T16:21:17;8.90;99.90
52565;DHT22;38460;53.106;7.004;2023-02-11T16:23:55;8.90;99.90
52565;DHT22;38460;53.106;7.004;2023-02-11T16:26:36;8.90;99.90
52565;DHT22;38460;53.106;7.004;2023-02-11T16:29:16;8.90;99.90
52565;DHT22;38460;53.106;7.004;2023-02-11T16:31:45;8.90;99.90
52565;DHT22;38460;53.106;7.004;2023-02-11T16:34:17;8.90;99.90
52565;DHT22;38460;53.106;7.004;2023-02-11T16:36:44;8.80;99.90
52565;DHT22;38460;53.106;7.004;2023-02-11T16:39:10;8.80;99.90
52565;DHT22;38460;53.106;7.004;2023-02-11T16:41:36;8.80;99.90
52565;DHT22;38460;53.106;7.004;2023-02-11T16:44:02;8.80;99.90
52565;DHT22;38460;53.106;7.004;2023-02-11T16:46:28;8.70;99.90
52565;DHT22;38460;53.106;7.004;2023-02-11T16:48:55;8.70;99.90
52565;DHT22;38460;53.106;7.004;2023-02-11T16:51:22;8.70;99.90
52565;DHT22;38460;53.106;7.004;2023-02-11T16:53:47;8.70;99.90
52565;DHT22;38460;53.106;7.004;2023-02-11T16:56:16;8.70;99.90
52565;DHT22;38460;53.106;7.004;2023-02-11T16:58:42;8.60;99.90
52565;DHT22;38460;53.106;7.004;2023-02-11T17:01:09;8.60;99.90
52565;DHT22;38460;53.106;7.004;2023-02-11T17:03:36;8.60;99.90
52565;DHT22;38460;53.106;7.004;2023-02-11T17:06:12;8.60;99.90
52565;DHT22;38460;53.106;7.004;2023-02-11T17:08:38;8.60;99.90
52565;DHT22;38460;53.106;7.004;2023-02-11T17:11:04;8.60;99.90
52565;DHT22;38460;53.106;7.004;2023-02-11T17:13:31;8.50;99.90
52565;DHT22;38460;53.106;7.004;2023-02-11T17:15:57;8.50;99.90
52565;DHT22;38460;53.106;7.004;2023-02-11T17:18:22;8.50;99.90
52565;DHT22;38460;53.106;7.004;2023-02-11T17:20:48;8.50;99.90
52565;DHT22;38460;53.106;7.004;2023-02-11T17:23:14;8.50;99.90
52565;DHT22;38460;53.106;7.004;2023-02-11T17:25:40;8.50;99.90
52565;DHT22;38460;53.106;7.004;2023-02-11T17:28:07;8.50;99.90
52565;DHT22;38460;53.106;7.004;2023-02-11T17:30:33;8.50;99.90
52565;DHT22;38460;53.106;7.004;2023-02-11T17:32:59;8.50;99.90
52565;DHT22;38460;53.106;7.004;2023-02-11T17:35:25;8.50;99.90
52565;DHT22;38460;53.106;7.004;2023-02-11T17:37:51;8.40;99.90
52565;DHT22;38460;53.106;7.004;2023-02-11T17:40:17;8.40;99.90
52565;DHT22;38460;53.106;7.004;2023-02-11T17:42:43;8.40;99.90
52565;DHT22;38460;53.106;7.004;2023-02-11T17:45:09;8.40;99.90
52565;DHT22;38460;53.106;7.004;2023-02-11T17:47:35;8.40;99.90
52565;DHT22;38460;53.106;7.004;2023-02-11T17:50:02;8.40;99.90
52565;DHT22;38460;53.106;7.004;2023-02-11T17:52:28;8.40;99.90
52565;DHT22;38460;53.106;7.004;2023-02-11T17:54:54;8.40;99.90
52565;DHT22;38460;53.106;7.004;2023-02-11T17:57:20;8.30;99.90
52565;DHT22;38460;53.106;7.004;2023-02-11T17:59:46;8.40;99.90
52565;DHT22;38460;53.106;7.004;2023-02-11T18:02:12;8.30;99.90
52565;DHT22;38460;53.106;7.004;2023-02-11T18:04:38;8.30;99.90
52565;DHT22;38460;53.106;7.004;2023-02-11T18:07:05;8.30;99.90
52565;DHT22;38460;53.106;7.004;2023-02-11T18:09:35;8.30;99.90
52565;DHT22;38460;53.106;7.004;2023-02-11T18:12:01;8.30;99.90
52565;DHT22;38460;53.106;7.004;2023-02-11T18:14:27;8.30;99.90
52565;DHT22;38460;53.106;7.004;2023-02-11T18:16:53;8.30;99.90
52565;DHT22;38460;53.106;7.004;2023-02-11T18:19:19;8.30;99.90
52565;DHT22;38460;53.106;7.004;2023-02-11T18:21:45;8.30;99.90
52565;DHT22;38460;53.106;7.004;2023-02-11T18:24:13;8.30;99.90
52565;DHT22;38460;53.106;7.004;2023-02-11T18:26:39;8.30;99.90
52565;DHT22;38460;53.106;7.004;2023-02-11T18:29:06;8.20;99.90
52565;DHT22;38460;53.106;7.004;2023-02-11T18:31:32;8.20;99.90
52565;DHT22;38460;53.106;7.004;2023-02-11T18:34:01;8.20;99.90
52565;DHT22;38460;53.106;7.004;2023-02-11T18:36:27;8.20;99.90
52565;DHT22;38460;53.106;7.004;2023-02-11T18:38:52;8.20;99.90